Time;durP1;ratioP1;P1;durP2;ratioP2;P2;SDS_P1;SDS_P2;PMS_P1;PMS_P2;Temp;Humidity;BMP_temperature;BMP_pressure;BME280_temperature;BME280_humidity;BME280_pressure;Samples;Min_cycle;Max_cycle;Signal;HPM_P1;HPM_P2
2022/08/27 00:00:50;;;;;;;31.88;21.02;;;;;;;21.55;71.38;98822.09;5261292;28;20059;-87
2022/08/27 00:03:40;;;;;;;36.97;22.52;;;;;;;21.66;71.09;98852.97;5261501;28;20080;-86
2022/08/27 00:06:31;;;;;;;40.88;24.20;;;;;;;21.74;70.34;98832.97;5245360;28;20048;-86
2022/08/27 00:09:22;;;;;;;39.13;23.73;;;;;;;21.71;70.94;98841.50;5230586;28;20045;-87
2022/08/27 00:12:16;;;;;;;37.47;23.42;;;;;;;21.71;70.45;98818.03;5244221;28;20079;-86
2022/08/27 00:15:07;;;;;;;42.67;23.90;;;;;;;21.60;72.62;98856.53;5249384;28;20053;-87
2022/08/27 00:17:59;;;;;;;40.60;24.35;;;;;;;21.38;72.68;98830.94;5247131;28;20598;-87
2022/08/27 00:20:50;;;;;;;40.55;23.77;;;;;;;21.52;72.29;98852.25;5247906;28;20060;-87
2022/08/27 00:23:40;;;;;;;37.30;23.83;;;;;;;21.86;71.35;98860.91;5245115;28;20518;-86
2022/08/27 00:26:31;;;;;;;36.22;24.50;;;;;;;21.95;70.66;98859.59;5244848;28;20071;-86
2022/08/27 00:29:21;;;;;;;42.97;26.13;;;;;;;21.79;71.23;98839.38;5244741;28;20052;-87
2022/08/27 00:32:11;;;;;;;47.40;26.95;;;;;;;21.75;71.04;98845.41;5244481;28;20159;-86
2022/08/27 00:35:02;;;;;;;44.42;26.95;;;;;;;21.69;71.49;98847.13;5242337;28;20048;-86
2022/08/27 00:37:53;;;;;;;41.10;26.75;;;;;;;21.66;70.76;98841.34;5266335;28;20048;-87
2022/08/27 00:40:43;;;;;;;46.08;27.80;;;;;;;21.32;72.04;98843.38;5244326;28;20513;-87
2022/08/27 00:43:47;;;;;;;45.53;26.70;;;;;;;21.33;72.27;98829.72;5243900;28;20052;-86
2022/08/27 00:46:46;;;;;;;47.40;28.48;;;;;;;21.60;72.31;98858.41;5244003;28;20134;-87
2022/08/27 00:49:45;;;;;;;47.38;28.45;;;;;;;21.63;71.49;98857.97;5230809;28;20056;-87
2022/08/27 00:52:41;;;;;;;45.08;29.70;;;;;;;21.59;71.16;98844.09;5244788;28;20045;-87
2022/08/27 00:55:35;;;;;;;49.97;29.88;;;;;;;21.81;70.82;98849.94;5259331;28;20422;-87
2022/08/27 00:58:36;;;;;;;;;;;;;;;21.68;71.23;98855.44;5245287;28;20045;-87
2022/08/27 01:01:30;;;;;;;48.47;28.55;;;;;;;21.58;71.40;98813.56;5245341;28;19920;-88
2022/08/27 01:04:24;;;;;;;46.00;29.83;;;;;;;21.53;71.89;98829.59;5224366;28;20055;-87
2022/08/27 01:07:16;;;;;;;49.85;29.55;;;;;;;21.58;71.84;98843.25;5253097;28;20055;-88
2022/08/27 01:10:11;;;;;;;55.70;30.98;;;;;;;21.65;71.57;98839.69;5210104;28;20041;-87
2022/08/27 01:13:01;;;;;;;46.03;29.98;;;;;;;21.71;70.98;98845.03;5224508;28;20122;-90
2022/08/27 01:15:57;;;;;;;50.63;29.75;;;;;;;21.60;71.24;98826.84;5228096;28;20049;-87
2022/08/27 01:18:48;;;;;;;45.15;29.42;;;;;;;21.79;70.83;98835.84;5232072;28;20409;-89
2022/08/27 01:21:54;;;;;;;43.53;26.92;;;;;;;21.78;70.59;98839.56;5247106;28;20098;-87
2022/08/27 01:24:48;;;;;;;44.22;28.10;;;;;;;21.85;70.17;98832.25;5250137;28;20088;-86
2022/08/27 01:27:41;;;;;;;44.97;28.70;;;;;;;21.82;70.42;98838.09;5259247;28;20067;-87
2022/08/27 01:30:32;;;;;;;48.53;29.42;;;;;;;21.81;69.73;98817.53;5244714;28;20123;-90
2022/08/27 01:33:22;;;;;;;43.13;27.75;;;;;;;21.67;69.57;98824.09;5245188;28;20483;-88
2022/08/27 01:36:13;;;;;;;46.40;29.17;;;;;;;21.66;70.28;98830.56;5238221;28;20079;-87
2022/08/27 01:39:03;;;;;;;44.88;29.20;;;;;;;21.73;70.27;98832.16;5225977;28;20060;-87
2022/08/27 01:42:02;;;;;;;48.65;29.08;;;;;;;21.54;70.19;98808.84;5239800;28;20210;-87
2022/08/27 01:44:56;;;;;;;46.65;28.55;;;;;;;21.67;70.70;98837.59;5234976;28;20071;-87
2022/08/27 01:47:47;;;;;;;47.33;29.27;;;;;;;21.71;70.36;98836.09;5249693;28;20052;-87
2022/08/27 01:50:39;;;;;;;43.40;28.70;;;;;;;21.71;69.59;98842.31;5262402;28;20055;-86
2022/08/27 01:53:30;;;;;;;45.55;29.05;;;;;;;21.78;70.08;98844.97;5247476;28;20174;-87
2022/08/27 01:56:20;;;;;;;48.63;29.92;;;;;;;21.67;69.77;98833.03;5233611;28;20142;-86
2022/08/27 01:59:10;;;;;;;42.88;28.65;;;;;;;21.71;69.53;98844.19;5247586;28;20072;-86
2022/08/27 02:02:01;;;;;;;44.65;29.42;;;;;;;21.58;68.96;98827.06;5233055;28;20159;-87
2022/08/27 02:04:51;;;;;;;48.55;30.17;;;;;;;21.73;69.82;98831.31;5233244;28;20052;-86
2022/08/27 02:07:41;;;;;;;44.58;28.42;;;;;;;21.79;69.30;98835.84;5261376;28;20063;-87
2022/08/27 02:10:35;;;;;;;45.03;29.48;;;;;;;21.60;69.63;98823.34;5247026;28;20183;-86
2022/08/27 02:13:26;;;;;;;;;;;;;;;21.75;70.13;98834.63;5261968;28;20087;-87
2022/08/27 02:16:17;;;;;;;50.90;30.42;;;;;;;21.62;70.31;98824.75;5246892;28;20014;-86
2022/08/27 02:19:07;;;;;;;48.38;29.27;;;;;;;21.54;71.13;98825.03;5247967;28;20627;-86
2022/08/27 02:21:59;;;;;;;52.22;30.25;;;;;;;21.44;71.14;98830.09;5247011;28;20063;-86
2022/08/27 02:24:50;;;;;;;48.58;29.83;;;;;;;21.55;70.59;98816.69;5250354;28;20134;-86
2022/08/27 02:27:41;;;;;;;47.92;31.08;;;;;;;21.47;70.55;98800.81;5253114;28;20049;-86
2022/08/27 02:30:33;;;;;;;48.00;30.60;;;;;;;21.58;70.38;98824.34;5246473;28;20041;-86
2022/08/27 02:33:24;;;;;;;53.53;31.50;;;;;;;21.52;71.03;98824.41;5232914;28;20060;-86
2022/08/27 02:36:16;;;;;;;53.03;32.95;;;;;;;21.69;71.05;98828.25;5249180;28;20067;-86
2022/08/27 02:39:07;;;;;;;52.90;33.75;;;;;;;21.73;71.33;98825.94;5251014;28;20056;-88
2022/08/27 02:41:57;;;;;;;56.67;34.28;;;;;;;21.57;70.64;98817.31;5245859;28;20045;-88
2022/08/27 02:44:48;;;;;;;57.83;33.97;;;;;;;21.47;70.38;98803.50;5247897;28;20159;-89
2022/08/27 02:47:39;;;;;;;54.38;33.70;;;;;;;21.69;71.20;98841.75;5233394;28;20098;-87
2022/08/27 02:50:30;;;;;;;52.95;32.88;;;;;;;21.72;70.65;98840.44;5262280;28;20091;-88
2022/08/27 02:53:20;;;;;;;56.17;33.95;;;;;;;21.63;70.15;98820.19;5234360;28;20106;-88
2022/08/27 02:56:12;;;;;;;58.10;34.90;;;;;;;21.37;71.54;98840.09;5234172;28;20110;-87
2022/08/27 02:59:10;;;;;;;55.92;33.53;;;;;;;21.60;70.83;98826.03;5246999;28;20051;-87
2022/08/27 03:02:00;;;;;;;51.88;33.83;;;;;;;21.44;71.95;98840.88;5228330;28;20049;-88
2022/08/27 03:04:51;;;;;;;59.70;35.67;;;;;;;21.47;71.68;98832.34;5248027;28;20198;-86
2022/08/27 03:07:42;;;;;;;57.33;34.13;;;;;;;21.55;71.71;98846.38;5260581;28;20059;-86
2022/08/27 03:10:32;;;;;;;56.53;34.53;;;;;;;21.34;72.05;98838.63;5260428;28;20052;-86
2022/08/27 03:13:24;;;;;;;53.85;33.50;;;;;;;21.31;72.43;98841.75;5247591;28;20106;-87
2022/08/27 03:16:14;;;;;;;53.65;32.63;;;;;;;21.56;70.96;98839.97;5261944;28;20056;-87
2022/08/27 03:19:05;;;;;;;52.38;31.70;;;;;;;21.25;72.06;98846.13;5247435;28;20064;-87
2022/08/27 03:21:55;;;;;;;50.80;30.33;;;;;;;21.24;71.24;98819.41;5208894;28;20079;-87
2022/08/27 03:24:46;;;;;;;47.63;30.60;;;;;;;21.11;71.25;98814.91;5246410;28;20526;-86
2022/08/27 03:27:37;;;;;;;48.90;29.23;;;;;;;21.22;71.54;98845.75;5261071;28;20059;-88
2022/08/27 03:30:27;;;;;;;49.88;28.80;;;;;;;21.17;71.38;98832.09;5233182;28;20130;-87
2022/08/27 03:33:19;;;;;;;46.92;28.80;;;;;;;21.18;71.57;98839.13;5248118;28;20060;-87
2022/08/27 03:36:10;;;;;;;46.30;28.60;;;;;;;21.07;71.13;98819.91;5248351;28;20477;-86
2022/08/27 03:39:00;;;;;;;48.75;27.67;;;;;;;21.16;70.91;98838.50;5248163;28;20415;-87
2022/08/27 03:41:51;;;;;;;42.83;28.55;;;;;;;21.04;71.37;98806.84;5247554;28;20044;-87
2022/08/27 03:44:48;;;;;;;43.03;27.92;;;;;;;21.17;71.01;98845.56;5247965;28;20059;-88
2022/08/27 03:47:39;;;;;;;41.90;27.33;;;;;;;20.87;72.50;98846.94;5248954;28;20051;-88
2022/08/27 03:50:29;;;;;;;48.10;28.25;;;;;;;20.41;73.20;98790.53;5234234;28;20418;-87
2022/08/27 03:53:19;;;;;;;49.60;29.77;;;;;;;20.38;72.44;98759.44;5247020;28;20048;-88
2022/08/27 03:56:10;;;;;;;51.55;30.25;;;;;;;21.17;71.05;98834.78;5246717;28;20053;-87
2022/08/27 03:59:00;;;;;;;52.20;31.42;;;;;;;20.76;72.23;98830.59;5245831;28;20098;-87
2022/08/27 04:01:50;;;;;;;54.58;31.02;;;;;;;20.64;73.40;98822.38;5243944;28;20055;-87
2022/08/27 04:04:40;;;;;;;56.00;30.92;;;;;;;20.84;71.96;98811.53;5245044;28;20059;-86
2022/08/27 04:07:31;;;;;;;51.25;31.73;;;;;;;20.47;73.79;98811.22;5255526;28;20051;-87
2022/08/27 04:10:22;;;;;;;55.45;33.22;;;;;;;20.45;72.82;98797.13;5263770;28;20055;-87
2022/08/27 04:13:12;;;;;;;57.95;32.08;;;;;;;20.68;72.94;98820.09;5257167;28;20045;-88
2022/08/27 04:16:04;;;;;;;58.05;32.38;;;;;;;20.39;74.08;98814.94;5246172;28;20423;-86
2022/08/27 04:18:54;;;;;;;55.03;32.20;;;;;;;20.41;73.41;98795.91;5244564;28;20064;-87
2022/08/27 04:21:44;;;;;;;63.03;33.13;;;;;;;20.42;73.85;98824.47;5243688;28;20052;-86
2022/08/27 04:24:36;;;;;;;56.65;32.05;;;;;;;20.78;72.39;98839.31;5209532;28;20056;-86
2022/08/27 04:27:27;;;;;;;58.17;32.45;;;;;;;20.90;72.64;98828.72;5215255;28;20525;-86
2022/08/27 04:30:18;;;;;;;60.30;34.05;;;;;;;21.05;71.67;98840.03;5223745;28;20443;-86
2022/08/27 04:33:09;;;;;;;57.22;33.55;;;;;;;20.80;72.20;98815.69;5216021;28;20506;-86
2022/08/27 04:36:07;;;;;;;62.20;33.80;;;;;;;20.67;73.82;98829.22;5245788;28;20135;-87
2022/08/27 04:38:57;;;;;;;61.83;34.80;;;;;;;20.76;72.71;98830.59;5250634;28;20490;-87
2022/08/27 04:41:49;;;;;;;62.38;36.05;;;;;;;20.83;72.65;98823.34;5229816;28;20513;-87
2022/08/27 04:44:40;;;;;;;62.65;34.85;;;;;;;20.69;72.94;98792.09;5228483;28;20053;-87
2022/08/27 04:47:30;;;;;;;61.78;35.60;;;;;;;20.31;74.67;98809.00;5243887;28;20049;-87
2022/08/27 04:50:20;;;;;;;64.88;35.05;;;;;;;20.83;72.75;98810.69;5229525;28;20052;-88
2022/08/27 04:53:19;;;;;;;64.18;36.13;;;;;;;20.84;73.63;98836.59;5243417;28;20135;-87
2022/08/27 04:56:13;;;;;;;61.38;36.05;;;;;;;20.73;74.25;98820.25;5243700;28;20059;-87
2022/08/27 04:59:06;;;;;;;65.32;35.88;;;;;;;20.75;73.82;98826.28;5244250;28;20521;-88
2022/08/27 05:01:57;;;;;;;69.03;37.27;;;;;;;20.95;73.83;98843.19;5243658;28;20130;-87
2022/08/27 05:04:47;;;;;;;71.30;37.88;;;;;;;20.56;74.92;98830.69;5229122;28;20055;-87
2022/08/27 05:07:38;;;;;;;66.80;37.67;;;;;;;20.90;72.70;98802.59;5259417;28;20059;-87
2022/08/27 05:10:28;;;;;;;73.03;38.28;;;;;;;21.20;72.81;98848.66;5244540;28;20071;-89
2022/08/27 05:13:21;;;;;;;68.57;36.92;;;;;;;21.10;73.05;98821.34;5243391;28;20106;-86
2022/08/27 05:16:15;;;;;;;66.63;38.10;;;;;;;21.28;72.11;98837.59;5244328;28;20051;-86
2022/08/27 05:19:09;;;;;;;;;;;;;;;21.34;72.29;98847.56;5260312;28;20052;-86
2022/08/27 05:22:00;;;;;;;64.00;34.53;;;;;;;21.31;71.53;98833.66;5255575;28;20440;-85
2022/08/27 05:24:50;;;;;;;65.28;36.30;;;;;;;21.21;71.57;98817.13;5257721;28;20541;-86
2022/08/27 05:27:40;;;;;;;63.05;35.88;;;;;;;21.47;70.98;98827.78;5244403;28;20548;-86
2022/08/27 05:30:35;;;;;;;67.10;36.20;;;;;;;21.32;71.79;98830.75;5243316;28;20071;-85
2022/08/27 05:33:26;;;;;;;63.03;36.72;;;;;;;21.29;72.15;98836.59;5243365;28;20056;-86
2022/08/27 05:36:24;;;;;;;60.30;35.28;;;;;;;21.19;72.27;98819.19;5237266;28;20514;-88
2022/08/27 05:39:14;;;;;;;65.45;36.38;;;;;;;21.44;71.70;98813.91;5243397;28;20137;-88
2022/08/27 05:42:05;;;;;;;62.58;36.30;;;;;;;21.15;72.03;98782.94;5242769;28;20191;-85
2022/08/27 05:44:55;;;;;;;70.50;36.17;;;;;;;21.48;71.86;98818.63;5229562;28;20141;-85
2022/08/27 05:47:54;;;;;;;64.03;36.05;;;;;;;21.16;71.06;98796.22;5257479;28;20056;-84
2022/08/27 05:50:47;;;;;;;60.67;36.72;;;;;;;20.66;73.36;98787.97;5242867;28;20053;-85
2022/08/27 05:53:38;;;;;;;62.90;36.35;;;;;;;21.45;72.20;98854.13;5229109;28;20135;-85
2022/08/27 05:56:32;;;;;;;60.95;35.72;;;;;;;21.50;71.60;98848.91;5257227;28;20049;-84
2022/08/27 06:02:35;;;;;;;60.13;35.42;;;;;;;21.23;72.61;98825.84;5253284;28;20123;-88
2022/08/27 06:05:26;;;;;;;63.72;35.58;;;;;;;21.10;71.80;98783.59;5264043;28;20452;-85
2022/08/27 06:08:17;;;;;;;66.95;36.65;;;;;;;21.42;71.87;98845.66;5222102;28;20057;-86
2022/08/27 06:11:07;;;;;;;65.25;38.17;;;;;;;21.50;72.04;98840.81;5222967;28;20049;-86
2022/08/27 06:13:57;;;;;;;64.28;38.50;;;;;;;21.23;72.51;98833.94;5242626;28;20060;-85
2022/08/27 06:16:47;;;;;;;64.72;37.30;;;;;;;21.48;72.36;98842.09;5242614;28;20057;-86
2022/08/27 06:19:38;;;;;;;64.88;38.03;;;;;;;21.50;72.16;98845.41;5228604;28;20442;-86
2022/08/27 06:22:28;;;;;;;55.60;35.25;;;;;;;21.65;71.33;98840.50;5247348;28;20179;-86
2022/08/27 06:25:18;;;;;;;66.78;37.55;;;;;;;21.62;71.56;98834.72;5245276;28;20110;-86
2022/08/27 06:28:09;;;;;;;62.85;38.63;;;;;;;21.65;71.08;98836.97;5246656;28;20518;-88
2022/08/27 06:31:11;;;;;;;62.28;37.15;;;;;;;21.70;71.73;98831.75;5231127;28;20047;-85
2022/08/27 06:34:05;;;;;;;71.75;38.08;;;;;;;21.19;71.92;98816.50;5243456;28;20067;-86
2022/08/27 06:36:56;;;;;;;66.93;39.42;;;;;;;20.88;72.89;98815.44;5237717;28;20048;-85
2022/08/27 06:39:47;;;;;;;61.28;37.40;;;;;;;21.51;72.18;98828.16;5249301;28;20058;-86
2022/08/27 06:42:37;;;;;;;64.85;38.63;;;;;;;21.95;70.73;98856.03;5225473;28;20041;-85
2022/08/27 06:45:28;;;;;;;69.22;39.00;;;;;;;21.95;70.21;98856.91;5237704;28;20125;-85
2022/08/27 06:48:19;;;;;;;65.43;36.95;;;;;;;21.83;70.07;98850.56;5227498;28;20052;-85
2022/08/27 06:51:13;;;;;;;63.00;37.08;;;;;;;21.76;71.44;98869.50;5226249;28;20491;-85
2022/08/27 06:54:06;;;;;;;65.80;38.60;;;;;;;21.67;71.54;98829.50;5221506;28;20537;-86
2022/08/27 06:56:58;;;;;;;78.43;39.85;;;;;;;21.79;70.66;98812.38;5235018;28;20085;-86
2022/08/27 06:59:49;;;;;;;62.95;35.95;;;;;;;21.29;72.13;98822.25;5253571;28;20111;-86
2022/08/27 07:02:40;;;;;;;60.80;35.83;;;;;;;21.28;73.21;98848.41;5244128;28;20056;-85
2022/08/27 07:05:34;;;;;;;62.47;37.60;;;;;;;22.15;70.59;98855.88;5249588;28;20493;-86
2022/08/27 07:08:24;;;;;;;62.58;36.88;;;;;;;22.30;69.91;98861.78;5259723;28;20059;-85
2022/08/27 07:11:14;;;;;;;58.45;35.67;;;;;;;22.22;69.97;98862.91;5247960;28;20140;-86
2022/08/27 07:14:06;;;;;;;57.60;34.70;;;;;;;22.11;70.01;98862.75;5242347;28;20049;-86
2022/08/27 07:16:56;;;;;;;56.85;33.75;;;;;;;22.36;69.48;98863.59;5261024;28;20127;-85
2022/08/27 07:19:46;;;;;;;56.63;32.72;;;;;;;22.40;68.76;98864.78;5233939;28;20521;-85
2022/08/27 07:22:44;;;;;;;48.20;31.38;;;;;;;22.22;69.05;98867.50;5223887;28;20111;-85
2022/08/27 07:25:34;;;;;;;56.10;33.88;;;;;;;22.08;70.14;98857.81;5227845;28;20099;-85
2022/08/27 07:28:26;;;;;;;57.75;33.25;;;;;;;22.17;69.56;98868.13;5245210;28;20087;-86
2022/08/27 07:31:19;;;;;;;54.15;32.05;;;;;;;22.31;70.11;98876.94;5244706;28;20048;-86
2022/08/27 07:34:09;;;;;;;50.90;32.28;;;;;;;22.25;69.41;98870.56;5245330;28;20064;-86
2022/08/27 07:37:00;;;;;;;60.15;33.92;;;;;;;22.22;70.29;98870.19;5244066;28;20052;-86
2022/08/27 07:39:50;;;;;;;48.63;33.58;;;;;;;21.80;72.17;98875.28;5211885;28;20053;-86
2022/08/27 07:45:54;;;;;;;50.13;32.53;;;;;;;22.08;71.19;98899.13;5210403;28;20057;-86
2022/08/27 07:48:44;;;;;;;50.95;32.70;;;;;;;22.00;70.61;98888.63;5241621;28;20466;-86
2022/08/27 07:51:36;;;;;;;58.80;34.38;;;;;;;21.97;72.35;98886.34;5258877;28;20454;-84
2022/08/27 07:54:27;;;;;;;55.72;34.67;;;;;;;21.72;72.99;98884.47;5231026;28;20127;-84
2022/08/27 07:57:17;;;;;;;59.92;34.05;;;;;;;21.43;74.69;98885.91;5259280;28;20048;-84
2022/08/27 08:00:09;;;;;;;59.25;35.63;;;;;;;21.41;73.45;98882.59;5257011;28;20059;-84
2022/08/27 08:03:02;;;;;;;60.85;36.28;;;;;;;21.03;76.43;98907.63;5251822;28;20053;-84
2022/08/27 08:05:54;;;;;;;60.10;35.70;;;;;;;21.03;75.93;98890.66;5231568;28;20087;-84
2022/08/27 08:08:45;;;;;;;69.22;37.65;;;;;;;21.19;76.75;98906.34;5237385;28;20519;-86
2022/08/27 08:11:36;;;;;;;54.75;35.42;;;;;;;21.58;74.57;98908.00;5223491;28;20092;-85
2022/08/27 08:14:27;;;;;;;58.63;34.50;;;;;;;21.52;74.16;98892.69;5245758;28;20051;-84
2022/08/27 08:17:17;;;;;;;51.95;33.85;;;;;;;21.42;73.64;98888.81;5248736;28;20059;-86
2022/08/27 08:20:10;;;;;;;57.80;34.33;;;;;;;20.99;74.34;98846.28;5258903;28;20110;-86
2022/08/27 08:23:20;;;;;;;60.15;33.53;;;;;;;21.36;74.59;98920.19;5212329;28;20143;-85
2022/08/27 08:26:11;;;;;;;58.80;35.88;;;;;;;20.86;76.78;98909.97;5223468;28;20052;-85
2022/08/27 08:29:03;;;;;;;59.13;36.13;;;;;;;21.42;74.58;98888.81;5222689;28;20137;-86
2022/08/27 08:31:54;;;;;;;61.90;36.00;;;;;;;21.65;73.92;98920.63;5243174;28;20106;-85
2022/08/27 08:34:44;;;;;;;57.40;35.20;;;;;;;21.55;74.38;98915.69;5258260;28;20051;-85
2022/08/27 08:37:34;;;;;;;66.70;37.15;;;;;;;21.59;74.46;98914.25;5257996;28;20157;-86
2022/08/27 08:40:34;;;;;;;62.30;37.20;;;;;;;21.21;75.61;98925.81;5229344;28;20102;-85
2022/08/27 08:43:38;;;;;;;61.55;36.75;;;;;;;21.10;76.55;98923.78;5243864;28;20425;-87
2022/08/27 08:46:35;;;;;;;62.80;38.22;;;;;;;21.62;74.99;98929.16;5236679;28;20518;-86
2022/08/27 08:49:48;;;;;;;59.60;36.28;;;;;;;21.60;75.17;98923.97;5247354;28;20052;-86
2022/08/27 08:53:03;;;;;;;62.53;36.35;;;;;;;21.59;73.79;98916.94;5237174;28;20115;-88
2022/08/27 08:56:00;;;;;;;63.63;36.45;;;;;;;21.47;75.51;98918.66;5243574;28;20079;-86
2022/08/27 08:58:57;;;;;;;62.72;37.63;;;;;;;21.67;74.20;98918.53;5243930;28;20074;-85
2022/08/27 09:01:48;;;;;;;58.38;36.47;;;;;;;21.53;75.07;98915.09;5244784;28;20052;-86
2022/08/27 09:04:40;;;;;;;54.72;34.92;;;;;;;21.55;74.27;98921.09;5244116;28;20067;-86
2022/08/27 09:07:51;;;;;;;58.53;37.08;;;;;;;21.73;74.84;98940.09;5243039;28;20056;-86
2022/08/27 09:10:56;;;;;;;58.72;34.90;;;;;;;21.39;74.81;98932.38;5243322;28;20493;-86
2022/08/27 09:13:50;;;;;;;55.42;33.90;;;;;;;21.49;74.41;98922.81;5240042;28;20052;-86
2022/08/27 09:16:40;;;;;;;61.15;34.65;;;;;;;21.60;74.93;98942.03;5271281;28;20059;-86
2022/08/27 09:19:33;;;;;;;62.47;37.22;;;;;;;21.76;74.69;98933.44;5243221;28;20453;-86
2022/08/27 09:22:43;;;;;;;57.80;35.50;;;;;;;21.85;73.93;98915.09;5228413;28;20051;-87
2022/08/27 09:25:39;;;;;;;58.85;35.70;;;;;;;22.03;74.14;98948.41;5223683;28;20107;-86
2022/08/27 09:31:39;;;;;;;56.35;33.95;;;;;;;22.05;72.99;98919.31;5226709;28;20056;-87
2022/08/27 09:34:36;;;;;;;60.95;35.33;;;;;;;22.02;73.99;98944.06;5244712;28;20059;-84
2022/08/27 09:37:30;;;;;;;58.55;35.22;;;;;;;22.02;73.36;98916.22;5245072;28;20123;-82
2022/08/27 09:40:30;;;;;;;57.63;34.97;;;;;;;21.71;74.25;98904.38;5239641;28;20127;-82
2022/08/27 09:43:25;;;;;;;52.42;35.47;;;;;;;21.86;74.79;98939.19;5234288;28;20044;-83
2022/08/27 09:46:22;;;;;;;64.72;35.55;;;;;;;22.07;74.48;98945.25;5233158;28;20051;-82
2022/08/27 09:49:17;;;;;;;55.53;35.38;;;;;;;22.20;73.44;98942.50;5238925;28;20044;-82
2022/08/27 09:52:18;;;;;;;61.55;35.92;;;;;;;22.22;72.98;98937.69;5242473;28;20131;-82
2022/08/27 09:55:08;;;;;;;61.20;36.38;;;;;;;22.39;73.40;98922.59;5248414;28;20052;-81
2022/08/27 09:58:02;;;;;;;59.10;36.10;;;;;;;22.52;72.42;98927.03;5237468;28;20128;-82
2022/08/27 10:01:14;;;;;;;56.92;34.33;;;;;;;22.61;71.89;98911.34;5247539;28;20526;-82
2022/08/27 10:04:22;;;;;;;52.95;33.47;;;;;;;22.38;72.87;98893.06;5249716;28;20060;-82
2022/08/27 10:07:37;;;;;;;54.70;33.80;;;;;;;22.65;71.09;98926.06;5258292;22;20068;-71
2022/08/27 10:10:46;;;;;;;;;;;;;;;22.85;72.31;98921.28;5226399;28;20067;-73
2022/08/27 10:13:56;;;;;;;58.42;34.55;;;;;;;22.98;70.72;98920.34;5213726;28;20419;-73
2022/08/27 10:17:24;;;;;;;59.35;35.63;;;;;;;23.17;71.62;98918.44;5225241;28;20123;-77
2022/08/27 10:20:42;;;;;;;55.97;35.47;;;;;;;23.00;72.04;98922.81;5225832;28;20267;-75
2022/08/27 10:23:51;;;;;;;58.13;36.22;;;;;;;22.70;71.44;98910.84;5224264;28;20060;-75
2022/08/27 10:26:56;;;;;;;60.30;36.80;;;;;;;22.66;73.94;98930.44;5222304;28;20444;-74
2022/08/27 10:30:08;;;;;;;58.88;36.72;;;;;;;23.04;71.89;98932.13;5210442;28;20059;-74
2022/08/27 10:33:25;;;;;;;58.35;36.50;;;;;;;23.25;71.15;98926.25;5223963;28;20059;-74
2022/08/27 10:36:30;;;;;;;56.95;36.20;;;;;;;22.98;71.90;98940.09;5225539;28;20056;-74
2022/08/27 10:39:37;;;;;;;53.28;35.88;;;;;;;23.32;71.45;98937.00;5223490;28;20541;-72
2022/08/27 10:42:31;;;;;;;56.65;35.47;;;;;;;22.51;72.16;98941.56;5224691;28;20203;-72
2022/08/27 10:45:24;;;;;;;61.07;37.07;;;;;;;23.12;71.53;98945.34;5205021;28;20623;-74
2022/08/27 10:48:33;;;;;;;62.95;37.83;;;;;;;23.41;71.45;98944.56;5225581;28;20847;-74
2022/08/27 10:51:31;;;;;;;58.85;38.95;;;;;;;23.62;71.37;98937.81;5209379;28;20140;-73
2022/08/27 10:54:39;;;;;;;57.55;36.05;;;;;;;23.71;70.28;98941.06;5225053;28;20140;-74
2022/08/27 10:58:06;;;;;;;56.05;35.35;;;;;;;23.35;71.86;98942.78;5220060;28;20179;-73
2022/08/27 11:01:07;;;;;;;54.92;33.78;;;;;;;23.31;70.09;98940.72;5223905;28;20095;-71
2022/08/27 11:04:06;;;;;;;51.53;34.28;;;;;;;23.51;70.56;98943.16;5225002;28;20158;-74
2022/08/27 11:07:05;;;;;;;52.00;37.00;;;;;;;23.37;70.27;98935.22;5224455;28;20577;-73
2022/08/27 11:10:04;;;;;;;56.50;34.58;;;;;;;23.64;69.78;98949.25;5224311;28;20091;-73
2022/08/27 11:12:58;;;;;;;55.15;34.00;;;;;;;23.64;70.05;98945.69;5206245;28;20128;-75
2022/08/27 11:15:53;;;;;;;57.45;34.75;;;;;;;23.83;69.58;98933.78;5223737;28;20056;-75
2022/08/27 11:18:55;;;;;;;52.05;33.45;;;;;;;23.93;69.38;98927.81;5220924;28;20135;-75
2022/08/27 11:22:09;;;;;;;55.47;34.88;;;;;;;23.94;69.48;98937.59;5223697;28;20117;-74
2022/08/27 11:25:06;;;;;;;52.95;35.70;;;;;;;24.05;69.24;98941.41;5224976;28;20040;-75
2022/08/27 11:27:57;;;;;;;50.63;32.80;;;;;;;24.01;68.23;98935.63;5224291;28;20415;-74
2022/08/27 11:30:47;;;;;;;51.88;34.17;;;;;;;24.09;69.09;98940.69;5224808;28;20134;-74
2022/08/27 11:33:53;;;;;;;48.30;32.80;;;;;;;23.51;69.67;98943.16;5209467;28;20060;-74
2022/08/27 11:37:05;;;;;;;50.10;33.50;;;;;;;23.68;70.16;98936.94;5224607;28;20059;-74
2022/08/27 11:40:16;;;;;;;51.92;34.20;;;;;;;23.83;69.08;98936.50;5214304;28;20053;-74
2022/08/27 11:43:15;;;;;;;50.28;33.40;;;;;;;23.83;68.97;98941.91;5224281;28;20048;-74
2022/08/27 11:46:07;;;;;;;51.65;34.33;;;;;;;23.74;69.56;98913.53;5224992;28;20123;-74
2022/08/27 11:49:01;;;;;;;54.47;34.20;;;;;;;23.83;68.36;98912.13;5224648;28;20099;-74
2022/08/27 11:51:57;;;;;;;49.17;33.67;;;;;;;23.75;69.49;98912.47;5224143;28;20158;-74
2022/08/27 11:54:54;;;;;;;46.17;33.72;;;;;;;23.98;68.78;98919.00;5224595;28;20057;-75
2022/08/27 11:57:44;;;;;;;54.90;33.55;;;;;;;23.95;69.53;98925.72;5209123;28;20049;-74
2022/08/27 12:00:40;;;;;;;50.63;32.42;;;;;;;23.69;68.96;98926.94;5224058;28;20060;-75
2022/08/27 12:03:33;;;;;;;47.47;33.28;;;;;;;23.93;68.82;98927.81;5209101;28;20052;-75
2022/08/27 12:06:25;;;;;;;53.85;34.30;;;;;;;23.96;68.87;98926.53;5224296;28;20071;-75
2022/08/27 12:09:22;;;;;;;48.75;33.58;;;;;;;23.51;70.13;98926.94;5224297;28;20103;-75
2022/08/27 12:12:24;;;;;;;51.45;33.53;;;;;;;23.90;69.42;98922.84;5223310;28;20084;-75
2022/08/27 12:15:21;;;;;;;49.95;33.38;;;;;;;24.02;67.66;98918.31;5223736;28;20514;-74
2022/08/27 12:18:45;;;;;;;48.10;33.85;;;;;;;24.06;68.08;98915.94;5223325;28;20414;-74
2022/08/27 12:21:38;;;;;;;45.38;31.70;;;;;;;23.99;67.70;98905.22;5223093;28;20487;-74
2022/08/27 12:24:54;;;;;;;44.05;30.42;;;;;;;23.87;67.02;98907.94;5224905;28;20045;-75
2022/08/27 12:27:55;;;;;;;51.85;33.72;;;;;;;23.83;68.36;98906.72;5211453;28;20514;-75
2022/08/27 12:30:50;;;;;;;51.05;33.90;;;;;;;24.06;67.69;98910.53;5223745;28;20069;-75
2022/08/27 12:33:45;;;;;;;49.85;31.70;;;;;;;23.74;67.71;98908.13;5223269;28;20391;-75
2022/08/27 12:36:36;;;;;;;50.88;33.45;;;;;;;23.76;67.24;98900.59;5223882;28;20052;-75
2022/08/27 12:39:34;;;;;;;50.65;35.50;;;;;;;23.92;68.52;98910.75;5223954;28;20191;-74
2022/08/27 12:42:25;;;;;;;47.63;32.33;;;;;;;24.02;68.53;98912.88;5208045;28;20458;-75
2022/08/27 12:45:21;;;;;;;55.50;36.08;;;;;;;24.14;67.59;98919.16;5223727;28;20150;-75
2022/08/27 12:48:11;;;;;;;46.45;31.42;;;;;;;23.67;67.60;98899.22;5223023;28;20045;-75
2022/08/27 12:51:07;;;;;;;42.95;31.50;;;;;;;24.04;68.23;98907.22;5223192;28;20056;-74
2022/08/27 12:54:09;;;;;;;43.97;28.60;;;;;;;24.23;65.79;98897.13;5215450;28;20045;-75
2022/08/27 12:57:28;;;;;;;45.25;30.17;;;;;;;24.47;65.40;98904.25;5207904;28;20051;-75
2022/08/27 13:00:20;;;;;;;45.35;29.65;;;;;;;24.53;65.86;98897.84;5222970;28;20442;-75
2022/08/27 13:03:24;;;;;;;41.17;27.13;;;;;;;24.56;65.81;98896.56;5222719;28;20053;-75
2022/08/27 13:06:33;;;;;;;37.80;25.63;;;;;;;24.78;64.82;98899.50;5222893;28;20151;-75
2022/08/27 13:09:46;;;;;;;32.85;22.05;;;;;;;24.84;61.98;98891.22;5222651;28;20044;-75
2022/08/27 13:12:37;;;;;;;31.60;24.10;;;;;;;24.92;61.94;98900.88;5207185;28;20420;-75
2022/08/27 13:15:28;;;;;;;29.80;22.92;;;;;;;24.89;62.09;98903.22;5222731;28;20079;-75
2022/08/27 13:18:18;;;;;;;36.28;24.23;;;;;;;25.03;62.28;98899.19;5222958;28;20538;-75
2022/08/27 13:21:24;;;;;;;34.08;23.00;;;;;;;24.66;62.12;98885.13;5222550;28;20124;-75
2022/08/27 13:24:20;;;;;;;32.97;23.92;;;;;;;24.88;63.60;98888.03;5218174;28;20095;-75
2022/08/27 13:27:11;;;;;;;30.77;22.48;;;;;;;25.06;61.97;98885.13;5222540;28;20110;-74
2022/08/27 13:30:09;;;;;;;27.60;20.15;;;;;;;25.24;59.18;98893.16;5222486;28;20115;-73
2022/08/27 13:33:40;;;;;;;32.08;20.60;;;;;;;25.29;61.43;98893.22;5223607;28;20051;-75
2022/08/27 13:36:35;;;;;;;38.17;24.35;;;;;;;25.41;62.92;98893.19;5226805;28;20127;-75